Time;durP1;ratioP1;P1;durP2;ratioP2;P2;SDS_P1;SDS_P2;PMS_P1;PMS_P2;Temp;Humidity;BMP_temperature;BMP_pressure;BME280_temperature;BME280_humidity;BME280_pressure;Samples;Min_cycle;Max_cycle;Signal;HPM_P1;HPM_P2
2022/01/19 00:07:20;;;;;;;27.05;10.30;;;;;;;0.39;61.40;102357.50;18625969;31;20110;-69
2022/01/19 00:17:25;;;;;;;24.70;9.67;;;;;;;0.32;60.58;102373.25;18630070;31;20080;-70
2022/01/19 00:27:28;;;;;;;27.50;10.90;;;;;;;0.05;62.32;102383.31;18629869;31;20092;-69
2022/01/19 00:37:32;;;;;;;30.03;11.67;;;;;;;0.00;62.93;102392.37;18629895;31;20089;-70
2022/01/19 00:47:35;;;;;;;26.10;12.63;;;;;;;-0.40;63.89;102417.63;18629240;31;20118;-70
2022/01/19 00:57:41;;;;;;;25.15;9.73;;;;;;;-0.50;63.70;102403.25;18628986;31;20102;-69
2022/01/19 01:07:44;;;;;;;26.00;10.53;;;;;;;-0.50;63.31;102416.94;18628490;31;20095;-69
2022/01/19 01:28:08;;;;;;;24.67;9.77;;;;;;;-0.84;64.07;102376.81;18628036;31;20088;-69
2022/01/19 01:38:13;;;;;;;24.73;8.23;;;;;;;-0.97;63.23;102353.56;18627900;31;20371;-69
2022/01/19 01:48:42;;;;;;;24.37;7.70;;;;;;;-1.33;64.73;102326.91;18626869;31;20083;-69
2022/01/19 01:58:48;;;;;;;21.30;8.07;;;;;;;-1.26;64.37;102331.72;18626768;31;20498;-69
2022/01/19 02:08:58;;;;;;;21.60;8.00;;;;;;;-1.54;63.77;102329.59;18626740;31;20364;-69
2022/01/19 02:40:14;;;;;;;22.93;9.47;;;;;;;-1.95;65.91;102298.25;18626148;31;20113;-68
2022/01/19 02:50:18;;;;;;;29.30;12.17;;;;;;;-1.93;65.48;102298.37;18625595;31;20104;-69
2022/01/19 03:10:43;;;;;;;19.87;8.10;;;;;;;-2.24;65.89;102280.59;18625161;31;20433;-69
2022/01/19 03:20:46;;;;;;;24.60;8.47;;;;;;;-2.41;65.75;102267.31;18624558;31;20138;-68
2022/01/19 03:30:50;;;;;;;23.33;8.40;;;;;;;-2.47;66.06;102260.81;18623913;31;20087;-68
2022/01/19 03:40:54;;;;;;;18.40;8.97;;;;;;;-2.22;65.00;102257.69;18622817;31;20088;-68
2022/01/19 03:50:58;;;;;;;25.17;10.63;;;;;;;-2.34;66.43;102273.81;18622956;31;20371;-68
2022/01/19 04:01:02;;;;;;;22.90;9.53;;;;;;;-2.51;66.43;102263.13;18622730;31;20111;-68
2022/01/19 04:11:07;;;;;;;26.77;9.93;;;;;;;-2.68;66.57;102269.41;18622464;31;20098;-68
2022/01/19 04:21:10;;;;;;;21.03;9.43;;;;;;;-3.16;67.53;102272.25;18621998;31;20103;-68
2022/01/19 04:31:14;;;;;;;36.30;14.70;;;;;;;-3.18;66.35;102282.31;18621153;31;20445;-68
2022/01/19 05:02:32;;;;;;;26.00;9.97;;;;;;;-2.89;64.49;102247.22;18359349;32;20097;-68
2022/01/19 05:22:57;;;;;;;23.00;10.00;;;;;;;-3.33;65.01;102233.41;18599846;31;20088;-68
2022/01/19 05:33:01;;;;;;;23.47;10.20;;;;;;;-3.25;65.65;102231.50;18627841;31;20489;-68
2022/01/19 05:43:04;;;;;;;36.27;13.83;;;;;;;-3.36;66.21;102235.72;18627290;31;20104;-68
2022/01/19 05:53:09;;;;;;;30.87;13.97;;;;;;;-3.39;66.36;102233.78;18626791;31;20092;-68
2022/01/19 06:03:12;;;;;;;37.47;14.33;;;;;;;-3.70;66.10;102231.19;18626526;31;20080;-67
2022/01/19 06:13:18;;;;;;;33.73;15.33;;;;;;;-3.46;65.34;102235.69;18626978;31;20101;-68
2022/01/19 06:23:21;;;;;;;39.33;17.60;;;;;;;-3.61;66.65;102238.72;18626391;31;20106;-68
2022/01/19 06:33:25;;;;;;;64.17;25.23;;;;;;;-3.77;66.28;102229.78;18625596;31;20440;-68
2022/01/19 06:43:28;;;;;;;46.63;19.17;;;;;;;-3.57;65.69;102215.25;18625023;31;20107;-68
2022/01/19 06:53:33;;;;;;;42.23;18.43;;;;;;;-3.53;65.94;102211.31;18624742;31;20091;-68
2022/01/19 07:03:36;;;;;;;46.13;20.23;;;;;;;-3.68;65.35;102211.78;18626972;31;20393;-68
2022/01/19 07:13:40;;;;;;;49.20;21.47;;;;;;;-3.70;66.32;102208.22;18624951;31;20105;-68
2022/01/19 07:23:43;;;;;;;50.83;22.60;;;;;;;-2.77;64.52;102196.19;18622486;31;20117;-68
2022/01/19 07:33:47;;;;;;;46.63;20.80;;;;;;;-2.45;64.29;102190.22;18625876;31;20090;-68
2022/01/19 07:43:50;;;;;;;47.87;23.37;;;;;;;-1.79;65.08;102175.69;18606512;31;588470;-69
2022/01/19 07:53:55;;;;;;;38.97;19.60;;;;;;;-0.66;62.12;102167.75;18624984;31;20424;-68
2022/01/19 08:03:59;;;;;;;44.07;20.23;;;;;;;0.09;61.38;102163.56;18623251;31;20136;-68
2022/01/19 08:14:03;;;;;;;41.73;18.93;;;;;;;0.50;61.55;102172.34;18623796;31;20084;-69
2022/01/19 08:24:06;;;;;;;40.97;18.10;;;;;;;0.52;62.48;102156.25;18623265;31;20076;-69
2022/01/19 08:34:11;;;;;;;36.95;16.67;;;;;;;0.57;63.32;102141.13;18631247;31;20072;-68
2022/01/19 08:44:14;;;;;;;37.63;14.55;;;;;;;0.46;64.44;102162.63;18630699;31;20084;-68
2022/01/19 08:54:19;;;;;;;33.95;14.63;;;;;;;0.78;63.77;102145.91;18630909;31;20128;-68
2022/01/19 09:04:22;;;;;;;29.77;13.85;;;;;;;1.58;61.95;102129.56;18630354;31;20072;-69
2022/01/19 09:14:26;;;;;;;32.88;14.57;;;;;;;1.16;63.00;102123.47;18630144;31;20102;-69
2022/01/19 09:24:29;;;;;;;25.12;12.93;;;;;;;1.22;62.38;102119.59;18629562;31;20102;-69
2022/01/19 09:34:33;;;;;;;30.23;13.90;;;;;;;2.12;60.22;102095.00;18629488;31;20088;-69
2022/01/19 09:44:37;;;;;;;24.33;11.68;;;;;;;2.18;60.21;102092.78;18628479;31;20088;-70
2022/01/19 09:54:41;;;;;;;27.85;12.60;;;;;;;2.58;58.27;102074.50;18629052;31;20088;-69
2022/01/19 10:04:47;;;;;;;25.60;10.40;;;;;;;2.53;58.67;102044.09;18650826;31;20110;-70
2022/01/19 10:25:16;;;;;;;25.67;10.90;;;;;;;3.13;55.19;101998.44;18694069;31;20088;-70
2022/01/19 10:35:25;;;;;;;20.02;9.38;;;;;;;3.88;53.80;101969.59;18693829;31;20712;-70
2022/01/19 10:45:32;;;;;;;19.85;8.60;;;;;;;4.61;51.90;101943.78;18693361;31;20136;-70
2022/01/19 10:55:41;;;;;;;20.12;9.40;;;;;;;4.57;50.54;101931.53;18692259;31;20371;-71
2022/01/19 11:05:46;;;;;;;16.85;9.32;;;;;;;4.75;50.22;101908.22;18693314;31;20206;-71
2022/01/19 11:15:50;;;;;;;21.00;8.05;;;;;;;4.70;51.09;101889.00;18692789;31;20136;-70
2022/01/19 11:25:58;;;;;;;21.02;9.10;;;;;;;4.09;51.58;101864.63;18692287;31;20447;-70
2022/01/19 11:36:04;;;;;;;25.27;9.10;;;;;;;4.32;51.39;101841.56;18688416;31;20087;-71
2022/01/19 11:46:26;;;;;;;24.35;10.55;;;;;;;5.18;50.13;101813.50;18687223;31;20076;-71
2022/01/19 11:56:31;;;;;;;29.75;12.82;;;;;;;5.58;49.35;101798.72;18690331;31;20087;-74
2022/01/19 12:06:37;;;;;;;23.65;12.15;;;;;;;6.08;48.83;101774.78;18693241;31;20111;-71
2022/01/19 12:16:59;;;;;;;25.98;10.40;;;;;;;6.06;48.65;101753.09;18587215;31;20178;-71
2022/01/19 12:27:23;;;;;;;23.90;10.35;;;;;;;6.22;48.36;101750.25;18631301;31;20088;-71
2022/01/19 12:37:40;;;;;;;25.20;11.32;;;;;;;5.91;49.03;101728.31;18631202;31;20106;-71
2022/01/19 12:47:47;;;;;;;34.97;12.75;;;;;;;5.95;48.51;101724.16;18630716;31;20096;-71
2022/01/19 12:57:52;;;;;;;28.38;12.90;;;;;;;6.11;48.44;101697.97;18630631;31;20088;-71
2022/01/19 13:07:59;;;;;;;34.15;14.35;;;;;;;6.40;48.04;101679.12;18627874;31;20092;-73
2022/01/19 13:18:04;;;;;;;37.63;18.37;;;;;;;6.15;48.64;101660.09;18618901;31;20469;-73
2022/01/19 13:28:07;;;;;;;35.70;15.68;;;;;;;6.36;48.73;101651.34;18625663;31;20100;-73
2022/01/19 13:38:13;;;;;;;29.90;14.93;;;;;;;6.44;48.86;101633.44;18624086;31;20100;-73
2022/01/19 13:48:28;;;;;;;34.22;13.62;;;;;;;6.66;47.97;101628.16;18625382;31;20169;-73
2022/01/19 13:58:35;;;;;;;23.58;11.52;;;;;;;6.12;49.40;101615.91;18616418;31;20088;-74
2022/01/19 14:08:38;;;;;;;32.70;13.85;;;;;;;6.52;48.91;101604.31;18622460;31;20100;-72
2022/01/19 14:18:43;;;;;;;26.12;11.63;;;;;;;6.51;48.86;101588.72;18622105;31;20095;-73
2022/01/19 14:28:46;;;;;;;27.73;12.98;;;;;;;6.62;48.59;101576.09;18621908;31;20122;-73
2022/01/19 14:38:56;;;;;;;26.45;10.68;;;;;;;6.78;48.57;101572.28;18619446;31;20473;-73
2022/01/19 14:49:04;;;;;;;30.48;13.05;;;;;;;6.49;48.73;101552.34;18621155;31;20096;-73
2022/01/19 14:59:10;;;;;;;31.20;15.93;;;;;;;6.08;50.18;101542.31;18620496;31;20106;-73
2022/01/19 15:09:13;;;;;;;25.90;10.85;;;;;;;5.71;51.39;101541.00;18562486;31;20096;-73
2022/01/19 15:19:18;;;;;;;25.27;9.93;;;;;;;5.45;51.74;101522.78;18590700;31;20092;-73
2022/01/19 15:29:21;;;;;;;24.45;10.63;;;;;;;5.28;52.05;101524.75;18624370;31;20096;-73
2022/01/19 15:39:25;;;;;;;21.20;10.02;;;;;;;4.58;53.66;101520.38;18623623;31;20105;-74
2022/01/19 15:49:28;;;;;;;27.30;10.73;;;;;;;3.94;55.05;101500.47;18624888;31;20117;-73
2022/01/19 15:59:33;;;;;;;21.62;9.50;;;;;;;3.49;55.81;101495.94;18623922;31;20171;-73
2022/01/19 16:09:37;;;;;;;27.13;10.85;;;;;;;3.04;56.73;101492.25;18621409;31;20147;-70
2022/01/19 16:19:41;;;;;;;38.05;17.40;;;;;;;2.87;56.95;101492.34;18616918;31;20105;-70
2022/01/19 16:29:44;;;;;;;37.30;16.85;;;;;;;2.20;59.08;101483.97;18621296;31;20106;-70
2022/01/19 16:39:48;;;;;;;47.30;20.98;;;;;;;1.74;60.27;101459.38;18622046;31;20088;-70
2022/01/19 16:50:12;;;;;;;49.85;22.33;;;;;;;1.64;60.43;101452.88;18625019;31;20104;-70
2022/01/19 17:00:17;;;;;;;43.63;19.83;;;;;;;1.43;61.27;101444.94;18615616;31;20337;-70
2022/01/19 17:10:23;;;;;;;52.62;22.83;;;;;;;1.40;61.08;101449.91;18618225;31;20140;-70
2022/01/19 17:20:27;;;;;;;38.00;17.95;;;;;;;1.15;62.39;101438.34;18618272;31;20110;-70
2022/01/19 17:30:30;;;;;;;33.20;14.25;;;;;;;1.25;61.45;101432.00;18602025;31;20191;-70
2022/01/19 17:40:35;;;;;;;38.60;14.90;;;;;;;1.04;62.18;101413.72;18560622;31;20099;-69
2022/01/19 17:50:53;;;;;;;60.90;26.00;;;;;;;0.88;62.19;101412.94;18612921;31;20114;-69
2022/01/19 18:00:58;;;;;;;42.60;17.65;;;;;;;0.79;62.49;101417.56;18603535;31;20088;-69
2022/01/19 18:11:02;;;;;;;32.03;13.80;;;;;;;0.73;62.67;101410.41;18559496;32;20186;-69
2022/01/19 18:21:08;;;;;;;37.72;19.25;;;;;;;0.55;63.02;101412.84;18557802;31;20092;-69
2022/01/19 18:31:12;;;;;;;40.20;20.43;;;;;;;0.22;65.04;101412.75;18609951;31;20180;-69
2022/01/19 18:41:17;;;;;;;44.58;19.10;;;;;;;0.20;64.75;101404.09;18621528;31;20111;-69
2022/01/19 18:51:20;;;;;;;41.57;19.83;;;;;;;0.22;64.37;101390.50;18624144;31;20088;-69
2022/01/19 19:01:25;;;;;;;34.30;15.73;;;;;;;0.05;64.22;101384.44;18590553;31;20121;-69
2022/01/19 19:11:47;;;;;;;37.90;18.07;;;;;;;-0.05;64.17;101382.16;18557889;31;20088;-69
2022/01/19 19:21:51;;;;;;;42.93;17.87;;;;;;;-0.25;65.29;101361.34;18556912;32;20104;-69
2022/01/19 19:31:54;;;;;;;36.97;16.57;;;;;;;-0.51;65.19;101341.91;18555937;32;20092;-69
2022/01/19 19:42:00;;;;;;;34.63;16.90;;;;;;;-0.63;65.42;101345.50;18546932;32;20523;-68
2022/01/19 19:52:04;;;;;;;34.87;16.93;;;;;;;-0.57;65.53;101314.19;18584010;31;20092;-68
2022/01/19 20:02:15;;;;;;;34.77;16.47;;;;;;;-0.87;65.46;101293.66;18623580;31;20092;-68
2022/01/19 20:12:19;;;;;;;43.80;17.97;;;;;;;-1.03;65.72;101287.66;18622990;31;20096;-68
2022/01/19 20:22:23;;;;;;;44.00;18.87;;;;;;;-1.26;66.06;101278.59;18623913;31;20115;-68
2022/01/19 20:32:26;;;;;;;42.90;18.83;;;;;;;-1.23;66.03;101263.38;18630511;31;20098;-68
2022/01/19 20:42:31;;;;;;;39.23;17.47;;;;;;;-1.36;66.54;101236.16;18629386;31;20090;-68
2022/01/19 20:52:34;;;;;;;27.43;15.90;;;;;;;-1.44;65.91;101217.78;18629056;31;20107;-68
2022/01/19 21:02:38;;;;;;;31.23;15.93;;;;;;;-1.49;66.54;101223.41;18628424;31;20084;-68
2022/01/19 21:12:43;;;;;;;33.87;16.20;;;;;;;-1.56;65.34;101217.03;18626493;31;20556;-68
2022/01/19 21:22:47;;;;;;;52.37;21.57;;;;;;;-1.77;65.48;101203.81;18625966;31;20088;-68
2022/01/19 21:32:52;;;;;;;45.83;22.33;;;;;;;-1.92;66.58;101186.72;18620327;31;20110;-68
2022/01/19 21:42:56;;;;;;;38.27;18.67;;;;;;;-1.97;67.05;101173.63;18625203;31;20117;-68
2022/01/19 21:52:59;;;;;;;41.63;20.87;;;;;;;-2.04;65.81;101171.53;18628629;31;20092;-68
2022/01/19 22:03:04;;;;;;;40.63;21.33;;;;;;;-2.13;66.78;101164.12;18626774;31;20084;-68
2022/01/19 22:13:07;;;;;;;57.80;23.30;;;;;;;-1.95;66.03;101158.38;18625605;31;20068;-68
2022/01/19 22:23:12;;;;;;;50.30;24.63;;;;;;;-2.33;66.64;101147.53;18626431;31;20140;-68
2022/01/19 22:33:15;;;;;;;59.47;28.80;;;;;;;-2.35;66.26;101155.94;18626233;31;20395;-68
2022/01/19 22:43:19;;;;;;;66.27;31.67;;;;;;;-2.34;66.92;101162.81;18625687;31;20088;-68
2022/01/19 22:53:22;;;;;;;58.00;26.83;;;;;;;-2.16;67.16;101158.84;18625764;31;20096;-68
2022/01/19 23:03:27;;;;;;;63.33;28.53;;;;;;;-2.41;66.39;101146.22;18624800;31;20139;-68
2022/01/19 23:13:34;;;;;;;58.70;27.07;;;;;;;-2.75;67.25;101121.97;18625052;31;20455;-68
2022/01/19 23:23:39;;;;;;;43.57;24.10;;;;;;;-2.63;67.06;101096.28;18624562;31;20064;-67
2022/01/19 23:33:43;;;;;;;49.63;25.27;;;;;;;-2.95;66.60;101090.87;18624110;31;20120;-67
2022/01/19 23:54:09;;;;;;;40.23;19.33;;;;;;;-2.26;64.94;101072.97;18623426;31;20444;-67
